sensor_id;sensor_type;location;lat;lon;timestamp;pressure;altitude;pressure_sealevel;temperature;humidity
550;BME280;20066;48.764;9.176;2022-12-20T00:01:28;98762.47;;;8.30;63.75
550;BME280;20066;48.764;9.176;2022-12-20T00:03:58;98753.53;;;7.68;65.72
550;BME280;20066;48.764;9.176;2022-12-20T00:06:27;98743.69;;;8.10;64.41
550;BME280;20066;48.764;9.176;2022-12-20T00:08:57;98744.38;;;7.34;66.03
550;BME280;20066;48.764;9.176;2022-12-20T00:11:26;98744.63;;;7.99;65.07
550;BME280;20066;48.764;9.176;2022-12-20T00:13:55;98743.16;;;8.01;64.97
550;BME280;20066;48.764;9.176;2022-12-20T00:16:24;98745.69;;;8.33;63.48
550;BME280;20066;48.764;9.176;2022-12-20T00:18:54;98732.44;;;8.01;63.68
550;BME280;20066;48.764;9.176;2022-12-20T00:21:23;98727.53;;;8.26;63.70
550;BME280;20066;48.764;9.176;2022-12-20T00:23:51;98722.78;;;7.43;65.56
550;BME280;20066;48.764;9.176;2022-12-20T00:26:21;98721.78;;;8.24;64.00
550;BME280;20066;48.764;9.176;2022-12-20T00:28:51;98711.59;;;7.56;66.11
550;BME280;20066;48.764;9.176;2022-12-20T00:31:22;98716.84;;;7.88;64.82
550;BME280;20066;48.764;9.176;2022-12-20T00:33:52;98720.56;;;8.22;64.27
550;BME280;20066;48.764;9.176;2022-12-20T00:36:21;98710.13;;;8.36;63.20
550;BME280;20066;48.764;9.176;2022-12-20T00:38:51;98717.72;;;7.57;65.60
550;BME280;20066;48.764;9.176;2022-12-20T00:41:22;98709.16;;;8.05;64.68
550;BME280;20066;48.764;9.176;2022-12-20T00:43:50;98701.78;;;7.99;64.27
550;BME280;20066;48.764;9.176;2022-12-20T00:46:20;98707.06;;;7.76;65.08
550;BME280;20066;48.764;9.176;2022-12-20T00:48:49;98714.69;;;7.93;64.46
550;BME280;20066;48.764;9.176;2022-12-20T00:51:19;98712.84;;;8.17;63.85
550;BME280;20066;48.764;9.176;2022-12-20T00:53:47;98722.34;;;7.95;65.08
550;BME280;20066;48.764;9.176;2022-12-20T00:56:16;98713.91;;;6.76;67.90
550;BME280;20066;48.764;9.176;2022-12-20T00:58:44;98699.63;;;6.99;69.25
550;BME280;20066;48.764;9.176;2022-12-20T01:01:18;98702.63;;;7.49;67.28
550;BME280;20066;48.764;9.176;2022-12-20T01:03:47;98710.94;;;7.98;65.28
550;BME280;20066;48.764;9.176;2022-12-20T01:06:16;98712.41;;;7.76;65.31
550;BME280;20066;48.764;9.176;2022-12-20T01:08:44;98723.19;;;7.99;65.10
550;BME280;20066;48.764;9.176;2022-12-20T01:11:13;98729.81;;;8.05;64.45
550;BME280;20066;48.764;9.176;2022-12-20T01:13:44;98723.34;;;8.06;64.43
550;BME280;20066;48.764;9.176;2022-12-20T01:16:14;98724.94;;;7.72;65.65
550;BME280;20066;48.764;9.176;2022-12-20T01:18:43;98733.25;;;7.67;65.19
550;BME280;20066;48.764;9.176;2022-12-20T01:21:14;98731.59;;;7.78;65.45
550;BME280;20066;48.764;9.176;2022-12-20T01:23:42;98734.81;;;7.87;65.10
550;BME280;20066;48.764;9.176;2022-12-20T01:26:12;98734.25;;;7.78;64.83
550;BME280;20066;48.764;9.176;2022-12-20T01:28:41;98731.88;;;7.92;63.99
550;BME280;20066;48.764;9.176;2022-12-20T01:31:11;98731.94;;;8.15;63.27
550;BME280;20066;48.764;9.176;2022-12-20T01:33:40;98733.81;;;7.95;62.96
550;BME280;20066;48.764;9.176;2022-12-20T01:36:12;98730.88;;;8.39;63.15
550;BME280;20066;48.764;9.176;2022-12-20T01:38:41;98719.59;;;8.30;63.22
550;BME280;20066;48.764;9.176;2022-12-20T01:41:10;98729.81;;;8.24;62.70
550;BME280;20066;48.764;9.176;2022-12-20T01:43:47;98715.69;;;8.27;63.19
550;BME280;20066;48.764;9.176;2022-12-20T01:46:15;98725.03;;;8.14;62.86
550;BME280;20066;48.764;9.176;2022-12-20T01:48:47;98719.44;;;7.65;65.17
550;BME280;20066;48.764;9.176;2022-12-20T01:51:18;98719.53;;;7.88;64.92
550;BME280;20066;48.764;9.176;2022-12-20T01:53:46;98706.72;;;7.43;65.90
550;BME280;20066;48.764;9.176;2022-12-20T01:56:18;98696.19;;;6.83;69.01
550;BME280;20066;48.764;9.176;2022-12-20T01:58:47;98722.19;;;7.33;66.86
550;BME280;20066;48.764;9.176;2022-12-20T02:01:17;98683.94;;;7.87;65.13
550;BME280;20066;48.764;9.176;2022-12-20T02:03:45;98679.84;;;6.73;68.63
550;BME280;20066;48.764;9.176;2022-12-20T02:06:17;98694.97;;;6.81;68.07
550;BME280;20066;48.764;9.176;2022-12-20T02:08:47;98687.88;;;7.55;66.17
550;BME280;20066;48.764;9.176;2022-12-20T02:11:27;98679.50;;;7.21;67.21
550;BME280;20066;48.764;9.176;2022-12-20T02:14:06;98696.47;;;7.64;65.26
550;BME280;20066;48.764;9.176;2022-12-20T02:16:48;98687.19;;;7.23;66.76
550;BME280;20066;48.764;9.176;2022-12-20T02:19:39;98690.78;;;7.85;64.81
550;BME280;20066;48.764;9.176;2022-12-20T02:22:22;98666.03;;;7.53;64.52
550;BME280;20066;48.764;9.176;2022-12-20T02:25:21;98674.94;;;7.76;63.79
550;BME280;20066;48.764;9.176;2022-12-20T02:27:57;98683.94;;;7.33;65.93
550;BME280;20066;48.764;9.176;2022-12-20T02:30:31;98672.72;;;7.82;64.65
550;BME280;20066;48.764;9.176;2022-12-20T02:33:02;98655.75;;;7.93;63.70
550;BME280;20066;48.764;9.176;2022-12-20T02:35:33;98672.47;;;7.87;64.24
550;BME280;20066;48.764;9.176;2022-12-20T02:38:03;98660.41;;;7.58;64.32
550;BME280;20066;48.764;9.176;2022-12-20T02:40:35;98673.91;;;7.11;66.34
550;BME280;20066;48.764;9.176;2022-12-20T02:43:07;98663.16;;;7.61;65.83
550;BME280;20066;48.764;9.176;2022-12-20T02:46:00;98674.28;;;6.93;66.23
550;BME280;20066;48.764;9.176;2022-12-20T02:48:30;98659.31;;;7.43;65.99
550;BME280;20066;48.764;9.176;2022-12-20T02:51:01;98666.47;;;7.55;65.14
550;BME280;20066;48.764;9.176;2022-12-20T02:53:30;98659.84;;;7.14;67.28
550;BME280;20066;48.764;9.176;2022-12-20T02:56:02;98639.38;;;7.21;66.82
550;BME280;20066;48.764;9.176;2022-12-20T02:58:37;98645.56;;;7.25;66.85
550;BME280;20066;48.764;9.176;2022-12-20T03:01:09;98644.06;;;7.63;64.90
550;BME280;20066;48.764;9.176;2022-12-20T03:03:38;98639.69;;;7.55;64.92
550;BME280;20066;48.764;9.176;2022-12-20T03:06:07;98640.31;;;7.48;64.93
550;BME280;20066;48.764;9.176;2022-12-20T03:08:35;98633.03;;;6.79;68.28
550;BME280;20066;48.764;9.176;2022-12-20T03:11:02;98630.03;;;6.96;67.17
550;BME280;20066;48.764;9.176;2022-12-20T03:13:30;98633.28;;;7.59;66.03
550;BME280;20066;48.764;9.176;2022-12-20T03:15:57;98634.88;;;8.02;64.20
550;BME280;20066;48.764;9.176;2022-12-20T03:18:27;98638.47;;;7.91;64.01
550;BME280;20066;48.764;9.176;2022-12-20T03:20:54;98630.81;;;7.31;66.35
550;BME280;20066;48.764;9.176;2022-12-20T03:23:22;98625.34;;;7.63;64.70
550;BME280;20066;48.764;9.176;2022-12-20T03:25:50;98621.25;;;7.69;64.59
550;BME280;20066;48.764;9.176;2022-12-20T03:28:18;98602.28;;;7.58;65.46
550;BME280;20066;48.764;9.176;2022-12-20T03:30:46;98605.69;;;7.55;65.40
550;BME280;20066;48.764;9.176;2022-12-20T03:33:14;98604.16;;;7.96;63.98
550;BME280;20066;48.764;9.176;2022-12-20T03:35:43;98608.34;;;7.17;67.16
550;BME280;20066;48.764;9.176;2022-12-20T03:38:11;98599.09;;;7.72;65.49
550;BME280;20066;48.764;9.176;2022-12-20T03:40:38;98612.06;;;7.89;64.58
550;BME280;20066;48.764;9.176;2022-12-20T03:43:06;98608.41;;;7.78;64.39
550;BME280;20066;48.764;9.176;2022-12-20T03:45:33;98608.22;;;7.67;65.10
550;BME280;20066;48.764;9.176;2022-12-20T03:48:01;98603.41;;;7.76;64.31
550;BME280;20066;48.764;9.176;2022-12-20T03:50:29;98612.84;;;7.51;65.68
550;BME280;20066;48.764;9.176;2022-12-20T03:52:59;98622.22;;;7.61;66.25
550;BME280;20066;48.764;9.176;2022-12-20T03:55:27;98612.09;;;7.70;64.81
550;BME280;20066;48.764;9.176;2022-12-20T03:57:55;98609.47;;;7.93;65.35
550;BME280;20066;48.764;9.176;2022-12-20T04:00:23;98606.56;;;8.01;64.75
550;BME280;20066;48.764;9.176;2022-12-20T04:02:51;98595.47;;;7.61;65.40
550;BME280;20066;48.764;9.176;2022-12-20T04:05:19;98602.13;;;7.90;64.83
550;BME280;20066;48.764;9.176;2022-12-20T04:07:47;98593.41;;;8.38;63.41
550;BME280;20066;48.764;9.176;2022-12-20T04:10:16;98587.38;;;7.99;64.14
550;BME280;20066;48.764;9.176;2022-12-20T04:12:44;98584.59;;;7.34;66.10
550;BME280;20066;48.764;9.176;2022-12-20T04:15:12;98584.09;;;7.48;67.38
550;BME280;20066;48.764;9.176;2022-12-20T04:17:39;98584.66;;;7.19;67.21
550;BME280;20066;48.764;9.176;2022-12-20T04:20:12;98577.94;;;6.90;69.58
550;BME280;20066;48.764;9.176;2022-12-20T04:22:46;98581.41;;;7.10;68.10
550;BME280;20066;48.764;9.176;2022-12-20T04:25:17;98581.09;;;7.30;67.96
550;BME280;20066;48.764;9.176;2022-12-20T04:27:45;98583.03;;;7.72;66.08
550;BME280;20066;48.764;9.176;2022-12-20T04:30:13;98581.44;;;7.67;66.72
550;BME280;20066;48.764;9.176;2022-12-20T04:32:41;98585.53;;;8.03;64.73
550;BME280;20066;48.764;9.176;2022-12-20T04:35:09;98592.75;;;7.80;65.38
550;BME280;20066;48.764;9.176;2022-12-20T04:37:37;98601.53;;;7.38;67.58
550;BME280;20066;48.764;9.176;2022-12-20T04:40:06;98577.78;;;7.56;67.51
550;BME280;20066;48.764;9.176;2022-12-20T04:42:35;98562.25;;;8.30;64.59
550;BME280;20066;48.764;9.176;2022-12-20T04:45:03;98561.81;;;8.51;63.95
550;BME280;20066;48.764;9.176;2022-12-20T04:47:33;98566.41;;;8.50;63.15
550;BME280;20066;48.764;9.176;2022-12-20T04:50:01;98556.56;;;7.86;64.99
550;BME280;20066;48.764;9.176;2022-12-20T04:52:29;98552.00;;;7.90;65.30
550;BME280;20066;48.764;9.176;2022-12-20T04:55:29;98561.09;;;7.44;66.74
550;BME280;20066;48.764;9.176;2022-12-20T04:57:58;98558.84;;;7.88;66.09
550;BME280;20066;48.764;9.176;2022-12-20T05:00:33;98557.25;;;7.83;65.73
550;BME280;20066;48.764;9.176;2022-12-20T05:03:01;98564.16;;;6.88;68.64
550;BME280;20066;48.764;9.176;2022-12-20T05:05:29;98564.81;;;7.77;66.16
550;BME280;20066;48.764;9.176;2022-12-20T05:07:56;98555.09;;;7.69;66.76
550;BME280;20066;48.764;9.176;2022-12-20T05:10:25;98548.00;;;7.38;68.41
550;BME280;20066;48.764;9.176;2022-12-20T05:12:52;98548.09;;;8.07;65.39
550;BME280;20066;48.764;9.176;2022-12-20T05:15:21;98545.06;;;8.08;65.73
550;BME280;20066;48.764;9.176;2022-12-20T05:17:50;98529.25;;;8.26;64.80
550;BME280;20066;48.764;9.176;2022-12-20T05:20:18;98537.78;;;8.32;64.22
550;BME280;20066;48.764;9.176;2022-12-20T05:22:45;98540.50;;;8.35;64.61
550;BME280;20066;48.764;9.176;2022-12-20T05:25:30;98528.56;;;8.29;64.76
550;BME280;20066;48.764;9.176;2022-12-20T05:28:16;98528.84;;;8.73;63.40
550;BME280;20066;48.764;9.176;2022-12-20T05:30:45;98520.84;;;8.01;64.30
550;BME280;20066;48.764;9.176;2022-12-20T05:33:12;98524.13;;;7.49;67.76
550;BME280;20066;48.764;9.176;2022-12-20T05:35:40;98530.47;;;7.83;66.91
550;BME280;20066;48.764;9.176;2022-12-20T05:38:08;98539.41;;;8.13;65.76
550;BME280;20066;48.764;9.176;2022-12-20T05:40:35;98528.88;;;8.50;64.19
550;BME280;20066;48.764;9.176;2022-12-20T05:43:03;98519.09;;;8.62;63.83
550;BME280;20066;48.764;9.176;2022-12-20T05:45:31;98516.75;;;8.34;64.15
550;BME280;20066;48.764;9.176;2022-12-20T05:48:01;98513.16;;;8.00;65.51
550;BME280;20066;48.764;9.176;2022-12-20T05:50:28;98504.13;;;7.85;67.46
550;BME280;20066;48.764;9.176;2022-12-20T05:52:56;98504.66;;;8.17;65.90
550;BME280;20066;48.764;9.176;2022-12-20T05:55:24;98495.38;;;8.37;64.38
550;BME280;20066;48.764;9.176;2022-12-20T05:57:51;98503.28;;;7.81;66.81
550;BME280;20066;48.764;9.176;2022-12-20T06:00:19;98502.16;;;7.82;66.71
550;BME280;20066;48.764;9.176;2022-12-20T06:02:47;98498.69;;;8.04;65.44
550;BME280;20066;48.764;9.176;2022-12-20T06:05:16;98502.13;;;8.28;65.11
550;BME280;20066;48.764;9.176;2022-12-20T06:07:45;98499.91;;;7.42;67.54
550;BME280;20066;48.764;9.176;2022-12-20T06:10:12;98497.19;;;7.61;67.15
550;BME280;20066;48.764;9.176;2022-12-20T06:12:40;98510.19;;;7.40;68.63
550;BME280;20066;48.764;9.176;2022-12-20T06:15:08;98508.19;;;8.51;65.15
550;BME280;20066;48.764;9.176;2022-12-20T06:17:36;98506.94;;;8.19;64.50
550;BME280;20066;48.764;9.176;2022-12-20T06:20:05;98518.72;;;8.63;64.26
550;BME280;20066;48.764;9.176;2022-12-20T06:22:34;98504.03;;;7.59;67.32
550;BME280;20066;48.764;9.176;2022-12-20T06:25:03;98501.00;;;8.55;64.99
550;BME280;20066;48.764;9.176;2022-12-20T06:27:31;98511.88;;;8.92;63.08
550;BME280;20066;48.764;9.176;2022-12-20T06:29:59;98500.78;;;8.14;65.78
550;BME280;20066;48.764;9.176;2022-12-20T06:32:26;98506.91;;;8.15;65.69
550;BME280;20066;48.764;9.176;2022-12-20T06:34:54;98518.41;;;8.15;66.57
550;BME280;20066;48.764;9.176;2022-12-20T06:37:22;98519.69;;;8.25;65.07
550;BME280;20066;48.764;9.176;2022-12-20T06:39:51;98521.34;;;8.33;65.10
550;BME280;20066;48.764;9.176;2022-12-20T06:42:19;98518.00;;;8.40;65.18
550;BME280;20066;48.764;9.176;2022-12-20T06:44:47;98525.06;;;8.51;64.69
550;BME280;20066;48.764;9.176;2022-12-20T06:47:15;98515.34;;;7.71;67.52
550;BME280;20066;48.764;9.176;2022-12-20T06:49:43;98523.19;;;8.29;64.89
550;BME280;20066;48.764;9.176;2022-12-20T06:52:10;98519.91;;;8.66;63.66
550;BME280;20066;48.764;9.176;2022-12-20T06:54:38;98517.19;;;8.13;64.91
550;BME280;20066;48.764;9.176;2022-12-20T06:57:07;98521.09;;;8.95;63.30
550;BME280;20066;48.764;9.176;2022-12-20T06:59:35;98514.91;;;8.90;63.38
550;BME280;20066;48.764;9.176;2022-12-20T07:02:03;98497.44;;;9.04;62.29
550;BME280;20066;48.764;9.176;2022-12-20T07:04:34;98508.38;;;8.62;62.91
550;BME280;20066;48.764;9.176;2022-12-20T07:07:03;98506.03;;;8.60;63.30
550;BME280;20066;48.764;9.176;2022-12-20T07:09:31;98507.66;;;9.24;61.68
550;BME280;20066;48.764;9.176;2022-12-20T07:11:59;98505.69;;;9.18;62.31
550;BME280;20066;48.764;9.176;2022-12-20T07:14:29;98509.28;;;9.33;61.33
550;BME280;20066;48.764;9.176;2022-12-20T07:16:56;98512.47;;;9.12;62.07
550;BME280;20066;48.764;9.176;2022-12-20T07:19:24;98505.41;;;9.63;60.89
550;BME280;20066;48.764;9.176;2022-12-20T07:21:52;98508.75;;;9.53;60.73
550;BME280;20066;48.764;9.176;2022-12-20T07:24:20;98504.25;;;8.98;62.31
550;BME280;20066;48.764;9.176;2022-12-20T07:26:48;98513.44;;;8.97;63.04
550;BME280;20066;48.764;9.176;2022-12-20T07:29:15;98517.59;;;8.90;62.57
550;BME280;20066;48.764;9.176;2022-12-20T07:31:44;98504.91;;;9.17;62.06
550;BME280;20066;48.764;9.176;2022-12-20T07:34:12;98511.41;;;9.16;61.79
550;BME280;20066;48.764;9.176;2022-12-20T07:36:40;98511.59;;;9.01;62.25
550;BME280;20066;48.764;9.176;2022-12-20T07:39:09;98506.22;;;9.34;60.94
550;BME280;20066;48.764;9.176;2022-12-20T07:41:37;98500.13;;;9.04;62.53
550;BME280;20066;48.764;9.176;2022-12-20T07:44:05;98498.72;;;9.50;61.01
550;BME280;20066;48.764;9.176;2022-12-20T07:46:32;98503.53;;;9.34;61.02
550;BME280;20066;48.764;9.176;2022-12-20T07:49:02;98498.25;;;9.08;61.53
550;BME280;20066;48.764;9.176;2022-12-20T07:51:34;98496.28;;;9.01;62.10
550;BME280;20066;48.764;9.176;2022-12-20T07:54:05;98499.03;;;9.08;62.67
550;BME280;20066;48.764;9.176;2022-12-20T07:56:38;98499.47;;;9.47;60.99
550;BME280;20066;48.764;9.176;2022-12-20T07:59:08;98493.66;;;9.42;61.90
550;BME280;20066;48.764;9.176;2022-12-20T08:01:37;98496.47;;;9.19;62.06
550;BME280;20066;48.764;9.176;2022-12-20T08:04:09;98499.84;;;9.12;62.21
550;BME280;20066;48.764;9.176;2022-12-20T08:06:40;98506.59;;;9.69;61.46
550;BME280;20066;48.764;9.176;2022-12-20T08:09:10;98510.66;;;9.53;60.16
550;BME280;20066;48.764;9.176;2022-12-20T08:11:40;98501.34;;;9.84;60.06
550;BME280;20066;48.764;9.176;2022-12-20T08:14:10;98496.34;;;9.82;59.75
550;BME280;20066;48.764;9.176;2022-12-20T08:16:39;98500.94;;;9.78;60.28
550;BME280;20066;48.764;9.176;2022-12-20T08:19:08;98494.88;;;9.88;60.19
550;BME280;20066;48.764;9.176;2022-12-20T08:21:36;98490.19;;;9.78;60.34
550;BME280;20066;48.764;9.176;2022-12-20T08:24:04;98490.72;;;10.45;58.18
550;BME280;20066;48.764;9.176;2022-12-20T08:26:36;98490.28;;;10.33;58.78
550;BME280;20066;48.764;9.176;2022-12-20T08:29:05;98489.81;;;10.27;58.64
550;BME280;20066;48.764;9.176;2022-12-20T08:31:35;98483.47;;;10.53;57.13
550;BME280;20066;48.764;9.176;2022-12-20T08:34:03;98484.09;;;10.98;56.84
550;BME280;20066;48.764;9.176;2022-12-20T08:36:32;98471.06;;;9.87;59.87
550;BME280;20066;48.764;9.176;2022-12-20T08:39:01;98470.31;;;10.34;57.98
550;BME280;20066;48.764;9.176;2022-12-20T08:41:29;98464.03;;;10.81;56.92
550;BME280;20066;48.764;9.176;2022-12-20T08:43:57;98464.47;;;9.77;59.53
550;BME280;20066;48.764;9.176;2022-12-20T08:46:25;98462.25;;;9.90;59.56
550;BME280;20066;48.764;9.176;2022-12-20T08:48:53;98465.06;;;10.04;59.45
550;BME280;20066;48.764;9.176;2022-12-20T08:51:21;98452.13;;;10.20;58.62
550;BME280;20066;48.764;9.176;2022-12-20T08:53:51;98464.41;;;10.18;59.20
550;BME280;20066;48.764;9.176;2022-12-20T08:56:19;98452.47;;;10.77;57.43
550;BME280;20066;48.764;9.176;2022-12-20T08:58:47;98448.81;;;11.31;55.63
550;BME280;20066;48.764;9.176;2022-12-20T09:01:16;98459.50;;;11.03;56.51
550;BME280;20066;48.764;9.176;2022-12-20T09:03:45;98462.22;;;11.03;55.52
550;BME280;20066;48.764;9.176;2022-12-20T09:06:16;98459.06;;;10.90;56.32
550;BME280;20066;48.764;9.176;2022-12-20T09:08:45;98458.59;;;10.70;57.21
550;BME280;20066;48.764;9.176;2022-12-20T09:11:16;98449.59;;;9.90;59.97
550;BME280;20066;48.764;9.176;2022-12-20T09:13:46;98457.66;;;10.38;57.76
550;BME280;20066;48.764;9.176;2022-12-20T09:16:17;98455.91;;;10.74;57.51
550;BME280;20066;48.764;9.176;2022-12-20T09:18:47;98443.63;;;10.15;58.37
550;BME280;20066;48.764;9.176;2022-12-20T09:21:15;98433.69;;;9.67;60.55
550;BME280;20066;48.764;9.176;2022-12-20T09:23:43;98451.53;;;10.44;58.56
550;BME280;20066;48.764;9.176;2022-12-20T09:26:13;98435.88;;;10.02;59.95
550;BME280;20066;48.764;9.176;2022-12-20T09:28:43;98439.78;;;10.12;58.76
550;BME280;20066;48.764;9.176;2022-12-20T09:31:12;98448.00;;;10.26;58.56
550;BME280;20066;48.764;9.176;2022-12-20T09:33:41;98441.06;;;10.29;58.26
550;BME280;20066;48.764;9.176;2022-12-20T09:36:11;98444.78;;;10.14;59.21
550;BME280;20066;48.764;9.176;2022-12-20T09:38:39;98445.72;;;10.35;58.59
550;BME280;20066;48.764;9.176;2022-12-20T09:41:14;98428.75;;;10.24;59.25
550;BME280;20066;48.764;9.176;2022-12-20T09:43:49;98434.34;;;10.63;58.46
550;BME280;20066;48.764;9.176;2022-12-20T09:46:18;98434.44;;;10.84;57.22
550;BME280;20066;48.764;9.176;2022-12-20T09:48:46;98440.66;;;11.06;57.01
550;BME280;20066;48.764;9.176;2022-12-20T09:51:24;98431.47;;;11.11;57.31
550;BME280;20066;48.764;9.176;2022-12-20T09:54:03;98419.91;;;10.96;56.52
550;BME280;20066;48.764;9.176;2022-12-20T09:56:36;98420.00;;;11.53;55.23
550;BME280;20066;48.764;9.176;2022-12-20T09:59:10;98410.41;;;11.70;55.34
550;BME280;20066;48.764;9.176;2022-12-20T10:01:42;98422.34;;;11.86;55.09
550;BME280;20066;48.764;9.176;2022-12-20T10:04:16;98416.59;;;11.74;55.05
550;BME280;20066;48.764;9.176;2022-12-20T10:06:54;98410.00;;;11.46;55.46
550;BME280;20066;48.764;9.176;2022-12-20T10:09:42;98407.28;;;11.39;55.48
550;BME280;20066;48.764;9.176;2022-12-20T10:12:21;98403.31;;;10.91;56.65
550;BME280;20066;48.764;9.176;2022-12-20T10:15:03;98399.94;;;11.22;56.42
550;BME280;20066;48.764;9.176;2022-12-20T10:17:45;98404.56;;;11.36;55.33
550;BME280;20066;48.764;9.176;2022-12-20T10:20:33;98403.88;;;11.81;55.04
550;BME280;20066;48.764;9.176;2022-12-20T10:23:10;98393.84;;;11.57;55.22
550;BME280;20066;48.764;9.176;2022-12-20T10:25:40;98399.22;;;11.50;55.75
550;BME280;20066;48.764;9.176;2022-12-20T10:28:14;98392.66;;;11.40;55.75
550;BME280;20066;48.764;9.176;2022-12-20T10:30:44;98379.53;;;11.14;56.08
550;BME280;20066;48.764;9.176;2022-12-20T10:33:15;98382.47;;;10.56;57.48
550;BME280;20066;48.764;9.176;2022-12-20T10:35:45;98389.59;;;11.52;55.20
550;BME280;20066;48.764;9.176;2022-12-20T10:38:14;98375.75;;;11.33;55.77
550;BME280;20066;48.764;9.176;2022-12-20T10:40:45;98371.88;;;11.58;55.18
550;BME280;20066;48.764;9.176;2022-12-20T10:43:38;98374.50;;;10.91;57.20
550;BME280;20066;48.764;9.176;2022-12-20T10:46:10;98374.63;;;11.69;55.17
550;BME280;20066;48.764;9.176;2022-12-20T10:48:40;98384.19;;;12.09;53.97
550;BME280;20066;48.764;9.176;2022-12-20T10:51:14;98383.81;;;12.00;53.92
550;BME280;20066;48.764;9.176;2022-12-20T10:53:52;98389.63;;;11.88;53.74
550;BME280;20066;48.764;9.176;2022-12-20T10:56:21;98381.22;;;10.39;58.28
550;BME280;20066;48.764;9.176;2022-12-20T10:58:57;98367.91;;;10.74;57.62
550;BME280;20066;48.764;9.176;2022-12-20T11:01:28;98367.56;;;10.87;57.33
550;BME280;20066;48.764;9.176;2022-12-20T11:03:59;98362.25;;;11.18;55.69
550;BME280;20066;48.764;9.176;2022-12-20T11:06:40;98366.81;;;10.97;56.52
550;BME280;20066;48.764;9.176;2022-12-20T11:09:24;98356.03;;;10.86;57.11
550;BME280;20066;48.764;9.176;2022-12-20T11:12:04;98356.03;;;10.97;57.00
550;BME280;20066;48.764;9.176;2022-12-20T11:14:33;98353.81;;;11.84;54.91
550;BME280;20066;48.764;9.176;2022-12-20T11:17:18;98347.16;;;10.71;58.09
550;BME280;20066;48.764;9.176;2022-12-20T11:20:03;98352.09;;;10.59;58.48
550;BME280;20066;48.764;9.176;2022-12-20T11:22:47;98344.44;;;10.64;58.78
550;BME280;20066;48.764;9.176;2022-12-20T11:25:30;98337.97;;;10.83;58.02
550;BME280;20066;48.764;9.176;2022-12-20T11:28:19;98332.63;;;11.36;56.51
550;BME280;20066;48.764;9.176;2022-12-20T11:31:02;98335.34;;;11.43;55.55
550;BME280;20066;48.764;9.176;2022-12-20T11:33:49;98328.41;;;11.03;56.67
550;BME280;20066;48.764;9.176;2022-12-20T11:36:28;98328.03;;;11.61;55.24
550;BME280;20066;48.764;9.176;2022-12-20T11:39:04;98337.97;;;10.79;56.63
550;BME280;20066;48.764;9.176;2022-12-20T11:41:37;98334.41;;;10.47;58.07
550;BME280;20066;48.764;9.176;2022-12-20T11:44:15;98317.25;;;11.15;56.49
550;BME280;20066;48.764;9.176;2022-12-20T11:47:06;98325.75;;;11.71;55.68
550;BME280;20066;48.764;9.176;2022-12-20T11:49:52;98305.31;;;11.13;57.16
550;BME280;20066;48.764;9.176;2022-12-20T11:52:34;98304.56;;;11.41;56.23
550;BME280;20066;48.764;9.176;2022-12-20T11:55:08;98302.66;;;11.66;55.09
550;BME280;20066;48.764;9.176;2022-12-20T11:57:50;98300.69;;;11.84;53.81
550;BME280;20066;48.764;9.176;2022-12-20T12:00:46;98299.19;;;11.30;55.00
550;BME280;20066;48.764;9.176;2022-12-20T12:03:22;98287.63;;;11.05;56.27
550;BME280;20066;48.764;9.176;2022-12-20T12:05:57;98296.88;;;11.46;54.96
550;BME280;20066;48.764;9.176;2022-12-20T12:08:33;98311.47;;;11.59;54.92
550;BME280;20066;48.764;9.176;2022-12-20T12:11:05;98301.78;;;10.66;57.21
550;BME280;20066;48.764;9.176;2022-12-20T12:13:56;98290.59;;;10.47;58.26
550;BME280;20066;48.764;9.176;2022-12-20T12:16:28;98278.03;;;11.21;56.17
550;BME280;20066;48.764;9.176;2022-12-20T12:18:59;98280.34;;;11.41;55.08
550;BME280;20066;48.764;9.176;2022-12-20T12:21:34;98281.47;;;11.50;55.51
550;BME280;20066;48.764;9.176;2022-12-20T12:24:06;98281.69;;;12.27;53.14
550;BME280;20066;48.764;9.176;2022-12-20T12:26:38;98273.00;;;11.55;54.68
550;BME280;20066;48.764;9.176;2022-12-20T12:29:11;98273.72;;;11.91;54.10
550;BME280;20066;48.764;9.176;2022-12-20T12:31:42;98271.84;;;11.78;53.70
550;BME280;20066;48.764;9.176;2022-12-20T12:34:22;98275.63;;;11.94;53.65
550;BME280;20066;48.764;9.176;2022-12-20T12:37:23;98268.78;;;11.37;54.64
550;BME280;20066;48.764;9.176;2022-12-20T12:43:16;98258.78;;;11.48;54.76
550;BME280;20066;48.764;9.176;2022-12-20T12:45:49;98256.47;;;11.32;55.13
550;BME280;20066;48.764;9.176;2022-12-20T12:48:23;98259.53;;;11.45;55.29
550;BME280;20066;48.764;9.176;2022-12-20T12:50:55;98259.09;;;11.82;53.85
550;BME280;20066;48.764;9.176;2022-12-20T12:53:31;98248.41;;;11.39;55.17
550;BME280;20066;48.764;9.176;2022-12-20T12:56:29;98237.19;;;11.62;54.51
550;BME280;20066;48.764;9.176;2022-12-20T12:59:41;98219.16;;;11.48;55.09
550;BME280;20066;48.764;9.176;2022-12-20T13:02:35;98210.84;;;12.19;53.28
550;BME280;20066;48.764;9.176;2022-12-20T13:05:32;98230.63;;;11.88;53.85
550;BME280;20066;48.764;9.176;2022-12-20T13:08:01;98216.44;;;11.73;53.98
550;BME280;20066;48.764;9.176;2022-12-20T13:10:57;98203.66;;;11.84;53.99
550;BME280;20066;48.764;9.176;2022-12-20T13:13:26;98202.63;;;12.37;52.33
550;BME280;20066;48.764;9.176;2022-12-20T13:16:11;98208.31;;;13.12;50.36
550;BME280;20066;48.764;9.176;2022-12-20T13:19:04;98209.88;;;13.06;50.79
550;BME280;20066;48.764;9.176;2022-12-20T13:21:40;98202.38;;;12.76;52.00
550;BME280;20066;48.764;9.176;2022-12-20T13:24:36;98210.63;;;12.58;51.93
550;BME280;20066;48.764;9.176;2022-12-20T13:27:30;98204.94;;;12.42;52.04
550;BME280;20066;48.764;9.176;2022-12-20T13:35:56;98203.78;;;12.40;52.15
550;BME280;20066;48.764;9.176;2022-12-20T13:41:37;98203.16;;;12.76;51.85
550;BME280;20066;48.764;9.176;2022-12-20T13:44:38;98212.50;;;12.65;51.61
550;BME280;20066;48.764;9.176;2022-12-20T13:47:27;98203.25;;;12.62;51.85
550;BME280;20066;48.764;9.176;2022-12-20T13:49:59;98203.53;;;12.79;51.45
550;BME280;20066;48.764;9.176;2022-12-20T13:52:29;98198.03;;;12.34;52.66
550;BME280;20066;48.764;9.176;2022-12-20T13:54:59;98187.66;;;12.32;52.47
550;BME280;20066;48.764;9.176;2022-12-20T13:57:32;98184.03;;;12.53;52.57
550;BME280;20066;48.764;9.176;2022-12-20T14:00:14;98180.94;;;12.58;52.22
550;BME280;20066;48.764;9.176;2022-12-20T14:02:43;98184.16;;;12.35;53.52
550;BME280;20066;48.764;9.176;2022-12-20T14:05:16;98188.09;;;12.79;52.01
550;BME280;20066;48.764;9.176;2022-12-20T14:07:50;98185.03;;;12.18;53.51
550;BME280;20066;48.764;9.176;2022-12-20T14:10:23;98182.03;;;12.02;53.97